sensor_id;sensor_type;location;lat;lon;timestamp;P1;durP1;ratioP1;P2;durP2;ratioP2
24409;SDS011;12543;53.364;-1.504;2023-02-22T00:00:57;30.35;;;23.60;;
24409;SDS011;12543;53.364;-1.504;2023-02-22T00:03:47;33.00;;;24.50;;
24409;SDS011;12543;53.364;-1.504;2023-02-22T00:06:17;27.85;;;22.50;;
24409;SDS011;12543;53.364;-1.504;2023-02-22T00:08:46;32.53;;;24.17;;
24409;SDS011;12543;53.364;-1.504;2023-02-22T00:11:15;28.52;;;23.95;;
24409;SDS011;12543;53.364;-1.504;2023-02-22T00:13:42;26.40;;;21.43;;
24409;SDS011;12543;53.364;-1.504;2023-02-22T00:16:17;25.57;;;20.40;;
24409;SDS011;12543;53.364;-1.504;2023-02-22T00:18:46;23.58;;;19.48;;
24409;SDS011;12543;53.364;-1.504;2023-02-22T00:21:14;22.43;;;18.43;;
24409;SDS011;12543;53.364;-1.504;2023-02-22T00:23:43;23.90;;;18.17;;
24409;SDS011;12543;53.364;-1.504;2023-02-22T00:26:13;21.30;;;17.73;;
24409;SDS011;12543;53.364;-1.504;2023-02-22T00:28:45;21.13;;;17.13;;
24409;SDS011;12543;53.364;-1.504;2023-02-22T00:31:14;18.90;;;15.02;;
24409;SDS011;12543;53.364;-1.504;2023-02-22T00:33:41;21.20;;;17.13;;
24409;SDS011;12543;53.364;-1.504;2023-02-22T00:36:09;18.65;;;15.23;;
24409;SDS011;12543;53.364;-1.504;2023-02-22T00:38:38;17.75;;;14.13;;
24409;SDS011;12543;53.364;-1.504;2023-02-22T00:41:06;16.50;;;13.95;;
24409;SDS011;12543;53.364;-1.504;2023-02-22T00:43:34;15.20;;;12.90;;
24409;SDS011;12543;53.364;-1.504;2023-02-22T00:46:01;18.02;;;14.88;;
24409;SDS011;12543;53.364;-1.504;2023-02-22T00:48:28;16.80;;;13.17;;
24409;SDS011;12543;53.364;-1.504;2023-02-22T00:50:56;14.43;;;12.35;;
24409;SDS011;12543;53.364;-1.504;2023-02-22T00:53:23;16.50;;;13.43;;
24409;SDS011;12543;53.364;-1.504;2023-02-22T00:55:51;21.17;;;14.82;;
24409;SDS011;12543;53.364;-1.504;2023-02-22T00:58:18;18.17;;;14.70;;
24409;SDS011;12543;53.364;-1.504;2023-02-22T01:00:47;15.18;;;13.05;;
24409;SDS011;12543;53.364;-1.504;2023-02-22T01:03:16;15.80;;;13.23;;
24409;SDS011;12543;53.364;-1.504;2023-02-22T01:05:44;15.45;;;12.65;;
24409;SDS011;12543;53.364;-1.504;2023-02-22T01:08:13;15.90;;;12.40;;
24409;SDS011;12543;53.364;-1.504;2023-02-22T01:10:41;15.05;;;12.45;;
24409;SDS011;12543;53.364;-1.504;2023-02-22T01:13:09;13.60;;;10.63;;
24409;SDS011;12543;53.364;-1.504;2023-02-22T01:15:39;13.20;;;11.20;;
24409;SDS011;12543;53.364;-1.504;2023-02-22T01:18:08;14.00;;;11.80;;
24409;SDS011;12543;53.364;-1.504;2023-02-22T01:20:35;13.65;;;11.43;;
24409;SDS011;12543;53.364;-1.504;2023-02-22T01:23:03;14.57;;;12.23;;
24409;SDS011;12543;53.364;-1.504;2023-02-22T01:25:34;13.45;;;10.90;;
24409;SDS011;12543;53.364;-1.504;2023-02-22T01:28:02;14.15;;;12.10;;
24409;SDS011;12543;53.364;-1.504;2023-02-22T01:30:31;14.00;;;11.68;;
24409;SDS011;12543;53.364;-1.504;2023-02-22T01:33:01;17.38;;;13.57;;
24409;SDS011;12543;53.364;-1.504;2023-02-22T01:35:31;15.82;;;12.82;;
24409;SDS011;12543;53.364;-1.504;2023-02-22T01:38:01;15.75;;;12.52;;
24409;SDS011;12543;53.364;-1.504;2023-02-22T01:40:29;16.73;;;13.27;;
24409;SDS011;12543;53.364;-1.504;2023-02-22T01:42:59;17.50;;;13.95;;
24409;SDS011;12543;53.364;-1.504;2023-02-22T01:47:56;15.45;;;12.82;;
24409;SDS011;12543;53.364;-1.504;2023-02-22T01:50:24;15.80;;;12.85;;
24409;SDS011;12543;53.364;-1.504;2023-02-22T01:52:51;16.10;;;12.60;;
24409;SDS011;12543;53.364;-1.504;2023-02-22T01:55:18;14.77;;;11.60;;
24409;SDS011;12543;53.364;-1.504;2023-02-22T01:57:45;13.77;;;11.27;;
24409;SDS011;12543;53.364;-1.504;2023-02-22T02:00:15;13.18;;;10.32;;
24409;SDS011;12543;53.364;-1.504;2023-02-22T02:02:48;13.38;;;11.18;;
24409;SDS011;12543;53.364;-1.504;2023-02-22T02:05:20;13.63;;;10.65;;
24409;SDS011;12543;53.364;-1.504;2023-02-22T02:07:50;11.00;;;9.57;;
24409;SDS011;12543;53.364;-1.504;2023-02-22T02:10:19;13.20;;;10.75;;
24409;SDS011;12543;53.364;-1.504;2023-02-22T02:12:47;14.07;;;11.52;;
24409;SDS011;12543;53.364;-1.504;2023-02-22T02:15:24;13.55;;;11.02;;
24409;SDS011;12543;53.364;-1.504;2023-02-22T02:17:57;13.05;;;11.00;;
24409;SDS011;12543;53.364;-1.504;2023-02-22T02:34:34;14.52;;;11.65;;
24409;SDS011;12543;53.364;-1.504;2023-02-22T02:43:05;16.33;;;12.82;;
24409;SDS011;12543;53.364;-1.504;2023-02-22T02:45:37;16.65;;;13.38;;
24409;SDS011;12543;53.364;-1.504;2023-02-22T02:48:19;14.45;;;11.57;;
24409;SDS011;12543;53.364;-1.504;2023-02-22T02:50:51;15.02;;;10.95;;
24409;SDS011;12543;53.364;-1.504;2023-02-22T02:53:24;12.88;;;10.77;;
24409;SDS011;12543;53.364;-1.504;2023-02-22T02:55:57;14.07;;;11.02;;
24409;SDS011;12543;53.364;-1.504;2023-02-22T02:58:25;11.80;;;10.13;;
24409;SDS011;12543;53.364;-1.504;2023-02-22T03:00:53;13.38;;;10.23;;
24409;SDS011;12543;53.364;-1.504;2023-02-22T03:12:04;16.05;;;12.70;;
24409;SDS011;12543;53.364;-1.504;2023-02-22T03:14:40;13.73;;;10.18;;
24409;SDS011;12543;53.364;-1.504;2023-02-22T03:17:25;12.48;;;10.73;;
24409;SDS011;12543;53.364;-1.504;2023-02-22T03:19:57;15.68;;;10.65;;
24409;SDS011;12543;53.364;-1.504;2023-02-22T03:22:32;10.55;;;8.32;;
24409;SDS011;12543;53.364;-1.504;2023-02-22T03:25:35;8.07;;;7.03;;
24409;SDS011;12543;53.364;-1.504;2023-02-22T03:28:06;9.00;;;6.93;;
24409;SDS011;12543;53.364;-1.504;2023-02-22T03:30:39;7.07;;;6.07;;
24409;SDS011;12543;53.364;-1.504;2023-02-22T03:33:15;7.45;;;6.68;;
24409;SDS011;12543;53.364;-1.504;2023-02-22T03:35:52;7.30;;;6.18;;
24409;SDS011;12543;53.364;-1.504;2023-02-22T03:38:23;7.80;;;6.40;;
24409;SDS011;12543;53.364;-1.504;2023-02-22T03:40:55;6.13;;;5.38;;
24409;SDS011;12543;53.364;-1.504;2023-02-22T03:43:28;6.78;;;5.22;;
24409;SDS011;12543;53.364;-1.504;2023-02-22T03:46:08;5.20;;;4.70;;
24409;SDS011;12543;53.364;-1.504;2023-02-22T03:51:31;5.80;;;5.07;;
24409;SDS011;12543;53.364;-1.504;2023-02-22T03:56:35;5.70;;;5.10;;
24409;SDS011;12543;53.364;-1.504;2023-02-22T03:59:12;5.03;;;4.00;;
24409;SDS011;12543;53.364;-1.504;2023-02-22T04:01:40;4.30;;;3.90;;
24409;SDS011;12543;53.364;-1.504;2023-02-22T04:04:08;4.63;;;4.10;;
24409;SDS011;12543;53.364;-1.504;2023-02-22T04:06:36;4.00;;;3.63;;
24409;SDS011;12543;53.364;-1.504;2023-02-22T04:09:04;4.50;;;3.55;;
24409;SDS011;12543;53.364;-1.504;2023-02-22T04:11:32;3.80;;;3.50;;
24409;SDS011;12543;53.364;-1.504;2023-02-22T04:13:59;3.50;;;3.20;;
24409;SDS011;12543;53.364;-1.504;2023-02-22T04:16:26;3.65;;;3.35;;
24409;SDS011;12543;53.364;-1.504;2023-02-22T04:18:54;4.50;;;4.10;;
24409;SDS011;12543;53.364;-1.504;2023-02-22T04:21:21;3.67;;;3.38;;
24409;SDS011;12543;53.364;-1.504;2023-02-22T04:23:49;4.00;;;3.60;;
24409;SDS011;12543;53.364;-1.504;2023-02-22T04:26:17;4.20;;;3.80;;
24409;SDS011;12543;53.364;-1.504;2023-02-22T04:28:49;4.18;;;3.78;;
24409;SDS011;12543;53.364;-1.504;2023-02-22T04:31:20;3.72;;;3.42;;
24409;SDS011;12543;53.364;-1.504;2023-02-22T04:33:48;3.60;;;3.30;;
24409;SDS011;12543;53.364;-1.504;2023-02-22T04:36:19;3.95;;;3.58;;
24409;SDS011;12543;53.364;-1.504;2023-02-22T04:38:47;3.38;;;3.08;;
24409;SDS011;12543;53.364;-1.504;2023-02-22T04:41:15;3.20;;;2.95;;
24409;SDS011;12543;53.364;-1.504;2023-02-22T04:43:44;3.40;;;3.10;;
24409;SDS011;12543;53.364;-1.504;2023-02-22T04:46:16;2.90;;;2.70;;
24409;SDS011;12543;53.364;-1.504;2023-02-22T04:48:44;3.63;;;3.30;;
24409;SDS011;12543;53.364;-1.504;2023-02-22T04:51:12;3.13;;;2.83;;
24409;SDS011;12543;53.364;-1.504;2023-02-22T04:53:52;3.67;;;3.25;;
24409;SDS011;12543;53.364;-1.504;2023-02-22T04:56:19;3.75;;;3.45;;
24409;SDS011;12543;53.364;-1.504;2023-02-22T04:58:46;3.63;;;3.33;;
24409;SDS011;12543;53.364;-1.504;2023-02-22T05:01:14;3.65;;;3.25;;
24409;SDS011;12543;53.364;-1.504;2023-02-22T05:03:44;4.63;;;3.60;;
24409;SDS011;12543;53.364;-1.504;2023-02-22T05:06:11;3.85;;;3.55;;
24409;SDS011;12543;53.364;-1.504;2023-02-22T05:08:38;3.70;;;3.38;;
24409;SDS011;12543;53.364;-1.504;2023-02-22T05:11:06;2.78;;;2.58;;
24409;SDS011;12543;53.364;-1.504;2023-02-22T05:13:33;3.33;;;3.03;;
24409;SDS011;12543;53.364;-1.504;2023-02-22T05:16:00;2.72;;;2.38;;
24409;SDS011;12543;53.364;-1.504;2023-02-22T05:18:27;4.07;;;2.70;;
24409;SDS011;12543;53.364;-1.504;2023-02-22T05:20:55;2.97;;;2.70;;
24409;SDS011;12543;53.364;-1.504;2023-02-22T05:23:22;2.72;;;2.47;;
24409;SDS011;12543;53.364;-1.504;2023-02-22T05:25:49;3.03;;;2.83;;
24409;SDS011;12543;53.364;-1.504;2023-02-22T05:28:16;3.53;;;3.20;;
24409;SDS011;12543;53.364;-1.504;2023-02-22T05:30:43;3.20;;;2.88;;
24409;SDS011;12543;53.364;-1.504;2023-02-22T05:33:10;2.78;;;2.58;;
24409;SDS011;12543;53.364;-1.504;2023-02-22T05:35:38;3.40;;;3.10;;
24409;SDS011;12543;53.364;-1.504;2023-02-22T05:38:06;2.90;;;2.70;;
24409;SDS011;12543;53.364;-1.504;2023-02-22T05:40:33;2.77;;;2.57;;
24409;SDS011;12543;53.364;-1.504;2023-02-22T05:43:00;2.60;;;2.40;;
24409;SDS011;12543;53.364;-1.504;2023-02-22T05:45:28;2.72;;;2.53;;
24409;SDS011;12543;53.364;-1.504;2023-02-22T05:47:55;2.85;;;2.50;;
24409;SDS011;12543;53.364;-1.504;2023-02-22T05:50:23;3.15;;;2.70;;
24409;SDS011;12543;53.364;-1.504;2023-02-22T05:52:50;2.70;;;2.50;;
24409;SDS011;12543;53.364;-1.504;2023-02-22T05:55:19;3.35;;;3.05;;
24409;SDS011;12543;53.364;-1.504;2023-02-22T05:57:48;3.25;;;2.97;;
24409;SDS011;12543;53.364;-1.504;2023-02-22T06:00:17;3.00;;;2.80;;
24409;SDS011;12543;53.364;-1.504;2023-02-22T06:02:58;3.58;;;3.28;;
24409;SDS011;12543;53.364;-1.504;2023-02-22T06:05:30;3.55;;;3.20;;
24409;SDS011;12543;53.364;-1.504;2023-02-22T06:07:58;3.58;;;3.28;;
24409;SDS011;12543;53.364;-1.504;2023-02-22T06:10:26;3.22;;;2.92;;
24409;SDS011;12543;53.364;-1.504;2023-02-22T06:12:53;3.42;;;3.13;;
24409;SDS011;12543;53.364;-1.504;2023-02-22T06:15:22;3.42;;;3.10;;
24409;SDS011;12543;53.364;-1.504;2023-02-22T06:17:50;3.22;;;2.92;;
24409;SDS011;12543;53.364;-1.504;2023-02-22T06:20:19;3.35;;;3.00;;
24409;SDS011;12543;53.364;-1.504;2023-02-22T06:22:48;4.18;;;3.35;;
24409;SDS011;12543;53.364;-1.504;2023-02-22T06:25:17;3.60;;;3.30;;
24409;SDS011;12543;53.364;-1.504;2023-02-22T06:27:46;4.13;;;3.60;;
24409;SDS011;12543;53.364;-1.504;2023-02-22T06:30:14;3.30;;;3.00;;
24409;SDS011;12543;53.364;-1.504;2023-02-22T06:32:42;3.75;;;3.42;;
24409;SDS011;12543;53.364;-1.504;2023-02-22T06:35:09;3.70;;;3.25;;
24409;SDS011;12543;53.364;-1.504;2023-02-22T06:37:38;3.83;;;3.42;;
24409;SDS011;12543;53.364;-1.504;2023-02-22T06:40:05;4.03;;;2.80;;
24409;SDS011;12543;53.364;-1.504;2023-02-22T06:42:32;3.55;;;3.17;;
24409;SDS011;12543;53.364;-1.504;2023-02-22T06:44:59;3.45;;;3.13;;
24409;SDS011;12543;53.364;-1.504;2023-02-22T06:47:26;3.83;;;3.47;;
24409;SDS011;12543;53.364;-1.504;2023-02-22T06:49:54;3.00;;;2.80;;
24409;SDS011;12543;53.364;-1.504;2023-02-22T06:52:22;3.40;;;2.65;;
24409;SDS011;12543;53.364;-1.504;2023-02-22T06:54:49;4.28;;;3.15;;
24409;SDS011;12543;53.364;-1.504;2023-02-22T06:57:17;3.90;;;3.43;;
24409;SDS011;12543;53.364;-1.504;2023-02-22T06:59:44;3.05;;;2.75;;
24409;SDS011;12543;53.364;-1.504;2023-02-22T07:02:11;3.30;;;2.83;;
24409;SDS011;12543;53.364;-1.504;2023-02-22T07:04:39;3.10;;;2.90;;
24409;SDS011;12543;53.364;-1.504;2023-02-22T07:07:08;2.80;;;2.60;;
24409;SDS011;12543;53.364;-1.504;2023-02-22T07:09:36;3.38;;;3.08;;
24409;SDS011;12543;53.364;-1.504;2023-02-22T07:12:03;3.55;;;3.22;;
24409;SDS011;12543;53.364;-1.504;2023-02-22T07:14:30;4.05;;;3.60;;
24409;SDS011;12543;53.364;-1.504;2023-02-22T07:16:57;4.75;;;4.07;;
24409;SDS011;12543;53.364;-1.504;2023-02-22T07:19:24;6.72;;;5.38;;
24409;SDS011;12543;53.364;-1.504;2023-02-22T07:21:51;5.97;;;5.15;;
24409;SDS011;12543;53.364;-1.504;2023-02-22T07:24:25;4.60;;;4.18;;
24409;SDS011;12543;53.364;-1.504;2023-02-22T07:26:53;4.50;;;4.10;;
24409;SDS011;12543;53.364;-1.504;2023-02-22T07:29:20;4.25;;;3.80;;
24409;SDS011;12543;53.364;-1.504;2023-02-22T07:31:48;4.80;;;3.50;;
24409;SDS011;12543;53.364;-1.504;2023-02-22T07:34:15;3.78;;;3.45;;
24409;SDS011;12543;53.364;-1.504;2023-02-22T07:36:42;3.50;;;3.20;;
24409;SDS011;12543;53.364;-1.504;2023-02-22T07:39:09;3.45;;;3.10;;
24409;SDS011;12543;53.364;-1.504;2023-02-22T07:41:36;3.67;;;3.38;;
24409;SDS011;12543;53.364;-1.504;2023-02-22T07:44:12;3.33;;;3.00;;
24409;SDS011;12543;53.364;-1.504;2023-02-22T07:46:39;3.88;;;3.25;;
24409;SDS011;12543;53.364;-1.504;2023-02-22T07:49:06;2.85;;;2.65;;
24409;SDS011;12543;53.364;-1.504;2023-02-22T07:51:33;3.25;;;2.95;;
24409;SDS011;12543;53.364;-1.504;2023-02-22T07:54:00;5.47;;;3.70;;
24409;SDS011;12543;53.364;-1.504;2023-02-22T07:56:27;3.85;;;3.30;;
24409;SDS011;12543;53.364;-1.504;2023-02-22T07:58:55;3.92;;;3.22;;
24409;SDS011;12543;53.364;-1.504;2023-02-22T08:01:22;4.50;;;3.33;;
24409;SDS011;12543;53.364;-1.504;2023-02-22T08:03:50;4.15;;;3.65;;
24409;SDS011;12543;53.364;-1.504;2023-02-22T08:06:18;3.67;;;3.00;;
24409;SDS011;12543;53.364;-1.504;2023-02-22T08:08:46;3.78;;;2.65;;
24409;SDS011;12543;53.364;-1.504;2023-02-22T08:11:13;3.13;;;2.78;;
24409;SDS011;12543;53.364;-1.504;2023-02-22T08:13:40;3.00;;;2.75;;
24409;SDS011;12543;53.364;-1.504;2023-02-22T08:16:07;3.25;;;2.70;;
24409;SDS011;12543;53.364;-1.504;2023-02-22T08:18:34;2.75;;;2.55;;
24409;SDS011;12543;53.364;-1.504;2023-02-22T08:21:03;3.53;;;3.22;;
24409;SDS011;12543;53.364;-1.504;2023-02-22T08:23:31;3.10;;;2.80;;
24409;SDS011;12543;53.364;-1.504;2023-02-22T08:26:05;3.28;;;2.97;;
24409;SDS011;12543;53.364;-1.504;2023-02-22T08:28:34;3.60;;;3.30;;
24409;SDS011;12543;53.364;-1.504;2023-02-22T08:31:01;4.15;;;3.78;;
24409;SDS011;12543;53.364;-1.504;2023-02-22T08:33:28;3.70;;;3.40;;
24409;SDS011;12543;53.364;-1.504;2023-02-22T08:35:55;3.95;;;3.65;;
24409;SDS011;12543;53.364;-1.504;2023-02-22T08:38:24;4.57;;;4.18;;
24409;SDS011;12543;53.364;-1.504;2023-02-22T08:40:53;4.60;;;4.30;;
24409;SDS011;12543;53.364;-1.504;2023-02-22T08:43:21;4.93;;;4.53;;
24409;SDS011;12543;53.364;-1.504;2023-02-22T08:45:49;5.80;;;5.30;;
24409;SDS011;12543;53.364;-1.504;2023-02-22T08:48:18;5.18;;;4.78;;
24409;SDS011;12543;53.364;-1.504;2023-02-22T08:50:45;5.30;;;4.80;;
24409;SDS011;12543;53.364;-1.504;2023-02-22T08:53:13;4.85;;;4.50;;
24409;SDS011;12543;53.364;-1.504;2023-02-22T08:55:40;4.80;;;4.40;;
24409;SDS011;12543;53.364;-1.504;2023-02-22T08:58:08;4.50;;;4.20;;
24409;SDS011;12543;53.364;-1.504;2023-02-22T09:00:36;3.92;;;3.70;;
24409;SDS011;12543;53.364;-1.504;2023-02-22T09:03:08;5.35;;;3.60;;
24409;SDS011;12543;53.364;-1.504;2023-02-22T09:05:39;2.45;;;2.33;;
24409;SDS011;12543;53.364;-1.504;2023-02-22T09:08:06;2.83;;;2.63;;
24409;SDS011;12543;53.364;-1.504;2023-02-22T09:10:34;2.40;;;2.20;;
24409;SDS011;12543;53.364;-1.504;2023-02-22T09:13:02;2.78;;;2.22;;
24409;SDS011;12543;53.364;-1.504;2023-02-22T09:15:29;2.00;;;1.90;;
24409;SDS011;12543;53.364;-1.504;2023-02-22T09:17:58;2.08;;;1.98;;
24409;SDS011;12543;53.364;-1.504;2023-02-22T09:20:25;2.25;;;2.08;;
24409;SDS011;12543;53.364;-1.504;2023-02-22T09:22:53;1.83;;;1.73;;
24409;SDS011;12543;53.364;-1.504;2023-02-22T09:25:21;2.15;;;1.98;;
24409;SDS011;12543;53.364;-1.504;2023-02-22T09:27:49;2.00;;;1.90;;
24409;SDS011;12543;53.364;-1.504;2023-02-22T09:30:40;1.92;;;1.83;;
24409;SDS011;12543;53.364;-1.504;2023-02-22T09:33:11;3.50;;;2.00;;
24409;SDS011;12543;53.364;-1.504;2023-02-22T09:35:40;1.98;;;1.88;;
24409;SDS011;12543;53.364;-1.504;2023-02-22T09:38:13;2.03;;;1.92;;
24409;SDS011;12543;53.364;-1.504;2023-02-22T09:40:44;2.47;;;2.28;;
24409;SDS011;12543;53.364;-1.504;2023-02-22T09:49:35;2.00;;;1.90;;
24409;SDS011;12543;53.364;-1.504;2023-02-22T09:54:49;1.67;;;1.58;;
24409;SDS011;12543;53.364;-1.504;2023-02-22T09:57:25;2.17;;;1.80;;
24409;SDS011;12543;53.364;-1.504;2023-02-22T10:05:35;1.88;;;1.52;;
24409;SDS011;12543;53.364;-1.504;2023-02-22T10:08:09;2.15;;;1.50;;
24409;SDS011;12543;53.364;-1.504;2023-02-22T10:10:42;3.15;;;0.95;;
24409;SDS011;12543;53.364;-1.504;2023-02-22T10:19:33;1.20;;;1.10;;
24409;SDS011;12543;53.364;-1.504;2023-02-22T10:26:41;0.85;;;0.40;;
24409;SDS011;12543;53.364;-1.504;2023-02-22T10:31:50;0.40;;;0.35;;
24409;SDS011;12543;53.364;-1.504;2023-02-22T10:34:28;0.68;;;0.40;;
24409;SDS011;12543;53.364;-1.504;2023-02-22T10:37:11;0.30;;;0.30;;
24409;SDS011;12543;53.364;-1.504;2023-02-22T10:42:38;2.03;;;0.32;;
24409;SDS011;12543;53.364;-1.504;2023-02-22T10:45:13;0.75;;;0.30;;
24409;SDS011;12543;53.364;-1.504;2023-02-22T10:47:53;0.40;;;0.30;;
24409;SDS011;12543;53.364;-1.504;2023-02-22T10:50:25;0.85;;;0.30;;
24409;SDS011;12543;53.364;-1.504;2023-02-22T10:52:55;0.93;;;0.20;;
24409;SDS011;12543;53.364;-1.504;2023-02-22T10:55:22;0.38;;;0.20;;
24409;SDS011;12543;53.364;-1.504;2023-02-22T10:57:50;0.28;;;0.28;;
24409;SDS011;12543;53.364;-1.504;2023-02-22T11:00:31;0.65;;;0.40;;
24409;SDS011;12543;53.364;-1.504;2023-02-22T11:05:40;0.38;;;0.30;;
24409;SDS011;12543;53.364;-1.504;2023-02-22T11:10:47;1.20;;;0.40;;
24409;SDS011;12543;53.364;-1.504;2023-02-22T11:13:36;1.50;;;0.30;;
24409;SDS011;12543;53.364;-1.504;2023-02-22T11:18:59;0.65;;;0.38;;
24409;SDS011;12543;53.364;-1.504;2023-02-22T11:21:46;1.77;;;0.40;;
24409;SDS011;12543;53.364;-1.504;2023-02-22T11:24:17;0.80;;;0.25;;
24409;SDS011;12543;53.364;-1.504;2023-02-22T11:29:25;1.35;;;0.57;;
24409;SDS011;12543;53.364;-1.504;2023-02-22T11:31:59;0.63;;;0.30;;
24409;SDS011;12543;53.364;-1.504;2023-02-22T11:40:12;1.98;;;0.60;;
24409;SDS011;12543;53.364;-1.504;2023-02-22T11:42:48;0.70;;;0.60;;
24409;SDS011;12543;53.364;-1.504;2023-02-22T11:45:31;1.70;;;0.55;;
24409;SDS011;12543;53.364;-1.504;2023-02-22T11:48:01;0.70;;;0.50;;
24409;SDS011;12543;53.364;-1.504;2023-02-22T11:56:13;0.75;;;0.30;;
24409;SDS011;12543;53.364;-1.504;2023-02-22T11:59:50;1.52;;;0.43;;
24409;SDS011;12543;53.364;-1.504;2023-02-22T12:21:17;0.55;;;0.35;;
24409;SDS011;12543;53.364;-1.504;2023-02-22T12:23:49;0.68;;;0.50;;
24409;SDS011;12543;53.364;-1.504;2023-02-22T12:26:27;0.65;;;0.40;;
24409;SDS011;12543;53.364;-1.504;2023-02-22T12:29:17;0.90;;;0.40;;
24409;SDS011;12543;53.364;-1.504;2023-02-22T12:31:49;1.83;;;0.43;;
24409;SDS011;12543;53.364;-1.504;2023-02-22T12:37:21;0.85;;;0.40;;
24409;SDS011;12543;53.364;-1.504;2023-02-22T12:45:01;1.58;;;0.60;;
24409;SDS011;12543;53.364;-1.504;2023-02-22T12:47:38;1.23;;;0.40;;
24409;SDS011;12543;53.364;-1.504;2023-02-22T12:50:21;0.68;;;0.30;;
24409;SDS011;12543;53.364;-1.504;2023-02-22T12:52:52;2.00;;;0.60;;
24409;SDS011;12543;53.364;-1.504;2023-02-22T12:55:25;1.60;;;0.93;;
24409;SDS011;12543;53.364;-1.504;2023-02-22T13:00:43;1.35;;;0.50;;
24409;SDS011;12543;53.364;-1.504;2023-02-22T13:03:42;0.95;;;0.40;;
24409;SDS011;12543;53.364;-1.504;2023-02-22T13:06:20;1.98;;;0.40;;
24409;SDS011;12543;53.364;-1.504;2023-02-22T13:17:41;1.90;;;0.45;;
24409;SDS011;12543;53.364;-1.504;2023-02-22T13:20:11;1.63;;;0.50;;
24409;SDS011;12543;53.364;-1.504;2023-02-22T13:25:40;4.38;;;0.50;;
24409;SDS011;12543;53.364;-1.504;2023-02-22T13:30:46;0.98;;;0.50;;
24409;SDS011;12543;53.364;-1.504;2023-02-22T13:42:19;2.50;;;0.60;;
24409;SDS011;12543;53.364;-1.504;2023-02-22T13:53:25;0.40;;;0.40;;
24409;SDS011;12543;53.364;-1.504;2023-02-22T13:55:58;1.20;;;0.43;;
24409;SDS011;12543;53.364;-1.504;2023-02-22T13:58:26;0.68;;;0.50;;
24409;SDS011;12543;53.364;-1.504;2023-02-22T14:00:57;1.30;;;0.70;;
24409;SDS011;12543;53.364;-1.504;2023-02-22T14:03:38;1.10;;;0.60;;
24409;SDS011;12543;53.364;-1.504;2023-02-22T14:06:07;0.65;;;0.50;;
24409;SDS011;12543;53.364;-1.504;2023-02-22T14:08:37;0.90;;;0.40;;
24409;SDS011;12543;53.364;-1.504;2023-02-22T14:16:24;0.75;;;0.40;;
24409;SDS011;12543;53.364;-1.504;2023-02-22T14:21:35;0.75;;;0.68;;
24409;SDS011;12543;53.364;-1.504;2023-02-22T14:24:12;1.10;;;0.55;;
24409;SDS011;12543;53.364;-1.504;2023-02-22T14:26:52;2.58;;;0.60;;
24409;SDS011;12543;53.364;-1.504;2023-02-22T14:29:20;0.77;;;0.40;;
24409;SDS011;12543;53.364;-1.504;2023-02-22T14:34:18;0.95;;;0.40;;
24409;SDS011;12543;53.364;-1.504;2023-02-22T14:36:51;0.82;;;0.40;;
24409;SDS011;12543;53.364;-1.504;2023-02-22T14:41:59;2.40;;;0.30;;
24409;SDS011;12543;53.364;-1.504;2023-02-22T14:44:41;1.73;;;0.40;;
24409;SDS011;12543;53.364;-1.504;2023-02-22T14:47:39;0.70;;;0.43;;
24409;SDS011;12543;53.364;-1.504;2023-02-22T14:50:08;1.27;;;0.40;;
24409;SDS011;12543;53.364;-1.504;2023-02-22T14:52:42;0.80;;;0.50;;
24409;SDS011;12543;53.364;-1.504;2023-02-22T14:55:21;1.92;;;0.50;;
24409;SDS011;12543;53.364;-1.504;2023-02-22T14:58:11;2.65;;;0.57;;
24409;SDS011;12543;53.364;-1.504;2023-02-22T15:00:44;0.95;;;0.43;;
24409;SDS011;12543;53.364;-1.504;2023-02-22T15:05:54;1.80;;;0.65;;
24409;SDS011;12543;53.364;-1.504;2023-02-22T15:08:24;2.33;;;0.40;;
24409;SDS011;12543;53.364;-1.504;2023-02-22T15:10:53;0.30;;;0.30;;
24409;SDS011;12543;53.364;-1.504;2023-02-22T15:13:22;1.08;;;0.40;;
24409;SDS011;12543;53.364;-1.504;2023-02-22T15:21:08;5.85;;;2.58;;
24409;SDS011;12543;53.364;-1.504;2023-02-22T15:23:40;5.80;;;3.85;;
24409;SDS011;12543;53.364;-1.504;2023-02-22T15:26:14;7.45;;;4.60;;
24409;SDS011;12543;53.364;-1.504;2023-02-22T15:28:54;4.40;;;3.30;;
24409;SDS011;12543;53.364;-1.504;2023-02-22T15:31:24;3.53;;;2.60;;
24409;SDS011;12543;53.364;-1.504;2023-02-22T15:34:35;2.65;;;1.95;;
24409;SDS011;12543;53.364;-1.504;2023-02-22T15:37:00;1.73;;;1.55;;
24409;SDS011;12543;53.364;-1.504;2023-02-22T15:39:40;2.00;;;1.35;;
24409;SDS011;12543;53.364;-1.504;2023-02-22T15:42:13;1.02;;;0.90;;
24409;SDS011;12543;53.364;-1.504;2023-02-22T15:44:46;0.85;;;0.75;;
24409;SDS011;12543;53.364;-1.504;2023-02-22T15:47:20;1.08;;;0.88;;
24409;SDS011;12543;53.364;-1.504;2023-02-22T15:57:54;11.57;;;8.32;;
24409;SDS011;12543;53.364;-1.504;2023-02-22T16:00:30;13.73;;;8.98;;
24409;SDS011;12543;53.364;-1.504;2023-02-22T16:03:06;15.63;;;10.88;;
24409;SDS011;12543;53.364;-1.504;2023-02-22T16:05:39;16.77;;;11.88;;
24409;SDS011;12543;53.364;-1.504;2023-02-22T16:08:32;17.75;;;12.27;;
24409;SDS011;12543;53.364;-1.504;2023-02-22T16:11:22;16.58;;;12.07;;
24409;SDS011;12543;53.364;-1.504;2023-02-22T16:13:59;15.57;;;11.02;;
24409;SDS011;12543;53.364;-1.504;2023-02-22T16:16:34;15.60;;;10.80;;
24409;SDS011;12543;53.364;-1.504;2023-02-22T16:22:03;9.93;;;6.65;;
24409;SDS011;12543;53.364;-1.504;2023-02-22T16:24:38;5.95;;;4.43;;
24409;SDS011;12543;53.364;-1.504;2023-02-22T16:29:35;3.60;;;2.65;;
24409;SDS011;12543;53.364;-1.504;2023-02-22T16:32:03;2.60;;;1.80;;
24409;SDS011;12543;53.364;-1.504;2023-02-22T16:34:30;2.33;;;1.63;;
24409;SDS011;12543;53.364;-1.504;2023-02-22T16:36:57;2.65;;;1.70;;
24409;SDS011;12543;53.364;-1.504;2023-02-22T16:39:28;1.65;;;1.40;;
24409;SDS011;12543;53.364;-1.504;2023-02-22T16:41:57;0.77;;;0.77;;
24409;SDS011;12543;53.364;-1.504;2023-02-22T16:44:27;1.17;;;0.80;;
24409;SDS011;12543;53.364;-1.504;2023-02-22T16:46:58;1.10;;;0.82;;
24409;SDS011;12543;53.364;-1.504;2023-02-22T16:49:26;0.70;;;0.60;;
24409;SDS011;12543;53.364;-1.504;2023-02-22T16:51:54;1.17;;;0.60;;
24409;SDS011;12543;53.364;-1.504;2023-02-22T16:56:55;1.05;;;0.95;;
24409;SDS011;12543;53.364;-1.504;2023-02-22T16:59:27;0.90;;;0.90;;
24409;SDS011;12543;53.364;-1.504;2023-02-22T17:01:58;1.40;;;0.90;;
24409;SDS011;12543;53.364;-1.504;2023-02-22T17:04:25;1.75;;;1.10;;
24409;SDS011;12543;53.364;-1.504;2023-02-22T17:06:54;1.50;;;0.80;;
24409;SDS011;12543;53.364;-1.504;2023-02-22T17:09:24;1.15;;;0.90;;
24409;SDS011;12543;53.364;-1.504;2023-02-22T17:11:51;1.00;;;0.90;;
24409;SDS011;12543;53.364;-1.504;2023-02-22T17:14:20;1.42;;;0.80;;
24409;SDS011;12543;53.364;-1.504;2023-02-22T17:16:53;1.85;;;0.95;;
24409;SDS011;12543;53.364;-1.504;2023-02-22T17:19:21;1.25;;;0.90;;
24409;SDS011;12543;53.364;-1.504;2023-02-22T17:21:52;0.70;;;0.70;;
24409;SDS011;12543;53.364;-1.504;2023-02-22T17:24:20;0.70;;;0.70;;
24409;SDS011;12543;53.364;-1.504;2023-02-22T17:26:54;1.10;;;1.00;;
24409;SDS011;12543;53.364;-1.504;2023-02-22T17:29:23;1.88;;;1.25;;
24409;SDS011;12543;53.364;-1.504;2023-02-22T17:31:53;2.17;;;1.60;;
24409;SDS011;12543;53.364;-1.504;2023-02-22T17:34:20;5.57;;;2.42;;
24409;SDS011;12543;53.364;-1.504;2023-02-22T17:36:47;3.10;;;2.17;;
24409;SDS011;12543;53.364;-1.504;2023-02-22T17:39:14;2.53;;;2.22;;
24409;SDS011;12543;53.364;-1.504;2023-02-22T17:41:41;2.90;;;1.90;;
24409;SDS011;12543;53.364;-1.504;2023-02-22T17:44:09;1.85;;;1.52;;
24409;SDS011;12543;53.364;-1.504;2023-02-22T17:46:37;1.60;;;1.50;;
24409;SDS011;12543;53.364;-1.504;2023-02-22T17:49:06;1.48;;;1.38;;
24409;SDS011;12543;53.364;-1.504;2023-02-22T17:51:33;1.45;;;1.05;;
24409;SDS011;12543;53.364;-1.504;2023-02-22T17:54:00;0.95;;;0.90;;
24409;SDS011;12543;53.364;-1.504;2023-02-22T17:56:27;1.08;;;0.80;;
24409;SDS011;12543;53.364;-1.504;2023-02-22T17:58:54;0.93;;;0.90;;